createdAt,value
2024-01-20T00:04:54.277Z,61.6
2024-01-20T00:10:31.232Z,61.6
2024-01-20T00:16:07.617Z,61.7
2024-01-20T00:21:43.996Z,62
2024-01-20T00:27:21.118Z,62.2
2024-01-20T00:32:58.299Z,62.2
2024-01-20T00:38:35.077Z,62.2
2024-01-20T00:44:11.365Z,62.2
2024-01-20T00:49:48.021Z,62.5
2024-01-20T00:55:24.086Z,62.5
2024-01-20T01:00:59.847Z,62.5
2024-01-20T01:06:35.679Z,62.6
2024-01-20T01:12:11.807Z,62.6
2024-01-20T01:17:47.013Z,62.7
2024-01-20T01:23:23.146Z,62.8
2024-01-20T01:29:01.487Z,62.7
2024-01-20T01:34:38.291Z,62.6
2024-01-20T01:40:14.416Z,62.7
2024-01-20T01:45:49.603Z,63.2
2024-01-20T01:51:24.672Z,63.1
2024-01-20T01:57:00.578Z,62.9
2024-01-20T02:02:37.052Z,63.3
2024-01-20T02:08:12.047Z,63.2
2024-01-20T02:13:47.803Z,63.3
2024-01-20T02:19:23.658Z,63.2
2024-01-20T02:25:02.479Z,62.7
2024-01-20T02:30:37.927Z,63
2024-01-20T02:36:13.472Z,62.9
2024-01-20T02:41:49.160Z,63
2024-01-20T02:47:25.091Z,63.2
2024-01-20T02:53:00.801Z,63.4
2024-01-20T02:58:36.269Z,63.5
2024-01-20T03:04:12.737Z,63.4
2024-01-20T03:09:49.334Z,63.7
2024-01-20T03:15:25.543Z,63.9
2024-01-20T03:21:02.149Z,63.7
2024-01-20T03:26:37.904Z,63.6
2024-01-20T03:32:12.992Z,63.5
2024-01-20T03:37:48.640Z,63
2024-01-20T03:43:24.048Z,62.8
2024-01-20T03:48:59.835Z,62.6
2024-01-20T03:54:37.031Z,62.6
2024-01-20T04:00:12.875Z,62.5
2024-01-20T04:05:48.222Z,62.2
2024-01-20T04:11:23.740Z,62.2
2024-01-20T04:16:59.162Z,62.4
2024-01-20T04:22:34.146Z,61.9
2024-01-20T04:28:09.919Z,62.3
2024-01-20T04:33:46.517Z,62.6
2024-01-20T04:39:23.525Z,63.4
2024-01-20T04:44:59.925Z,63.8
2024-01-20T04:50:36.038Z,63.6
2024-01-20T04:56:11.861Z,63.6
2024-01-20T05:01:47.307Z,63.6
2024-01-20T05:07:23.198Z,63.6
2024-01-20T05:12:58.623Z,64
2024-01-20T05:18:34.895Z,64.1
2024-01-20T05:24:12.372Z,64.3
2024-01-20T05:29:48.048Z,64.4
2024-01-20T05:35:23.948Z,64.5
2024-01-20T05:40:59.674Z,64.3
2024-01-20T05:46:35.064Z,64.5
2024-01-20T05:52:10.703Z,64.5
2024-01-20T05:57:46.520Z,64.5
2024-01-20T06:03:22.304Z,64.7
2024-01-20T06:08:58.670Z,64.4
2024-01-20T06:14:34.547Z,63.8
2024-01-20T06:20:09.788Z,63.7
2024-01-20T06:25:45.795Z,63.1
2024-01-20T06:31:23.199Z,63.5
2024-01-20T06:36:58.613Z,63.4
2024-01-20T06:42:33.731Z,62.7
2024-01-20T06:48:10.269Z,63
2024-01-20T06:53:47.279Z,63
2024-01-20T06:59:23.404Z,62.5
2024-01-20T07:04:58.535Z,62.7
2024-01-20T07:10:33.759Z,62.7
2024-01-20T07:16:09.202Z,62.3
2024-01-20T07:21:45.291Z,62.5
2024-01-20T07:27:21.170Z,62.9
2024-01-20T07:32:57.632Z,63.2
2024-01-20T07:38:34.659Z,63.3
2024-01-20T07:44:09.870Z,63.2
2024-01-20T07:49:46.292Z,63.3
2024-01-20T07:55:22.604Z,63.1
2024-01-20T08:00:57.797Z,63.2
2024-01-20T08:06:35.109Z,63.6
2024-01-20T08:12:11.566Z,63.8
2024-01-20T08:17:47.812Z,63.7
2024-01-20T08:23:23.713Z,63.6
2024-01-20T08:28:59.135Z,63.3
2024-01-20T08:34:34.926Z,63.4
2024-01-20T08:40:11.964Z,63
2024-01-20T08:45:47.763Z,62.6
2024-01-20T08:51:23.608Z,62.1
2024-01-20T08:56:59.735Z,61.7
2024-01-20T09:02:35.114Z,61.7
2024-01-20T09:08:11.408Z,61.6
2024-01-20T09:13:46.931Z,62.6
2024-01-20T09:19:22.667Z,62.3
2024-01-20T09:25:00.041Z,62.9
2024-01-20T09:30:35.685Z,63.3
2024-01-20T09:36:13.142Z,63.8
2024-01-20T09:41:49.526Z,63.1
2024-01-20T09:47:25.667Z,64.3
2024-01-20T09:53:01.734Z,64.1
2024-01-20T09:58:37.242Z,64.4
2024-01-20T10:04:13.560Z,64.4
2024-01-20T10:09:50.596Z,63.2
2024-01-20T10:15:26.161Z,62.3
2024-01-20T10:21:11.162Z,62.6
2024-01-20T10:26:47.544Z,64
2024-01-20T10:32:22.788Z,63.9
2024-01-20T10:37:59.223Z,65.3
2024-01-20T10:43:34.706Z,62.7
2024-01-20T10:49:10.257Z,64
2024-01-20T10:54:48.156Z,67.5
2024-01-20T11:00:24.807Z,64.7
2024-01-20T11:06:01.675Z,62.9
2024-01-20T11:11:40.503Z,64.7
2024-01-20T11:17:18.091Z,64
2024-01-20T11:22:53.449Z,64.1
2024-01-20T11:28:29.711Z,63.4
2024-01-20T11:34:06.057Z,63.4
2024-01-20T11:39:45.093Z,64
2024-01-20T11:45:22.085Z,62
2024-01-20T11:50:58.780Z,61.4
2024-01-20T11:56:34.856Z,61.9
2024-01-20T12:02:11.026Z,60.5
2024-01-20T12:07:46.520Z,60.1
2024-01-20T12:13:22.402Z,57
2024-01-20T12:18:58.881Z,60
2024-01-20T12:24:35.297Z,57.3
2024-01-20T12:30:11.992Z,55.4
2024-01-20T12:35:48.139Z,55.1
2024-01-20T12:41:23.700Z,56.2
2024-01-20T12:46:59.506Z,54.7
2024-01-20T12:52:35.675Z,53.6
2024-01-20T12:58:10.948Z,56.1
2024-01-20T13:03:46.914Z,54
2024-01-20T13:09:23.316Z,55.7
2024-01-20T13:15:01.433Z,54.6
2024-01-20T13:20:38.211Z,53.9
2024-01-20T13:26:14.308Z,55.2
2024-01-20T13:31:49.582Z,52.2
2024-01-20T13:37:25.709Z,52.7
2024-01-20T13:43:01.338Z,53.3
2024-01-20T13:48:37.146Z,54.6
2024-01-20T13:54:13.836Z,51.2
2024-01-20T13:59:49.901Z,50.3
2024-01-20T14:05:25.167Z,50.5
2024-01-20T14:11:00.729Z,48.8
2024-01-20T14:16:36.609Z,46.9
2024-01-20T14:22:12.355Z,46.3
2024-01-20T14:27:47.847Z,47.3
2024-01-20T14:33:24.460Z,43.3
2024-01-20T14:39:01.609Z,45.2
2024-01-20T14:44:37.479Z,43.8
2024-01-20T14:50:13.636Z,44.8
2024-01-20T14:55:49.087Z,41.2
2024-01-20T15:01:24.345Z,43.3
2024-01-20T15:06:59.915Z,48.3
2024-01-20T15:12:36.247Z,51.7
2024-01-20T15:18:12.961Z,52.2
2024-01-20T15:23:50.547Z,53.1
2024-01-20T15:29:25.464Z,56.3
2024-01-20T15:35:00.555Z,56.2
2024-01-20T15:40:36.018Z,57.9
2024-01-20T15:46:12.118Z,57.7
2024-01-20T15:51:48.344Z,58.5
2024-01-20T15:57:25.937Z,60.5
2024-01-20T16:03:01.843Z,63
2024-01-20T16:08:38.893Z,62.4
2024-01-20T16:14:14.745Z,61.4
2024-01-20T16:19:49.928Z,62.8
2024-01-20T16:25:26.471Z,62.7
2024-01-20T16:31:02.004Z,64
2024-01-20T16:36:37.939Z,63.6
2024-01-20T16:42:13.951Z,64.3
2024-01-20T16:47:54.356Z,66.3
2024-01-20T16:53:32.832Z,65.3
2024-01-20T16:59:07.919Z,66
2024-01-20T17:04:46.950Z,67.4
2024-01-20T17:10:23.561Z,67.7
2024-01-20T17:15:59.000Z,67
2024-01-20T17:21:35.189Z,67.9
2024-01-20T17:27:10.912Z,67.5
2024-01-20T17:32:48.902Z,64.6
2024-01-20T17:38:26.126Z,62.5
2024-01-20T17:44:01.380Z,61.7
2024-01-20T17:49:37.231Z,61.3
2024-01-20T17:55:14.389Z,61.1
2024-01-20T18:00:50.607Z,60.7
2024-01-20T18:06:27.317Z,60.9
2024-01-20T18:12:04.299Z,60.8
2024-01-20T18:17:39.841Z,60.8
2024-01-20T18:23:15.841Z,60.7
2024-01-20T18:28:51.999Z,60.9
2024-01-20T18:34:27.925Z,61
2024-01-20T18:40:04.635Z,60.9
2024-01-20T18:45:40.726Z,61
2024-01-20T18:51:18.508Z,60.9
2024-01-20T18:56:54.993Z,60.7
2024-01-20T19:02:30.453Z,60.5
2024-01-20T19:08:05.489Z,60.6
2024-01-20T19:13:40.792Z,60.6
2024-01-20T19:19:17.004Z,60.7
2024-01-20T19:24:54.025Z,60.9
2024-01-20T19:30:30.106Z,60.7
2024-01-20T19:36:05.848Z,61.5
2024-01-20T19:41:41.706Z,61.5
2024-01-20T19:47:16.986Z,61.4
2024-01-20T19:52:52.231Z,61.8
2024-01-20T19:58:28.053Z,61.7
2024-01-20T20:04:03.957Z,62.1
2024-01-20T20:09:42.464Z,61.8
2024-01-20T20:15:22.195Z,61.9
2024-01-20T20:20:58.312Z,61.7
2024-01-20T20:26:34.359Z,61.4
2024-01-20T20:32:10.477Z,61.7
2024-01-20T20:37:46.755Z,61.3
2024-01-20T20:43:22.510Z,61.5
2024-01-20T20:48:58.317Z,61.9
2024-01-20T20:54:36.064Z,61.9
2024-01-20T21:00:12.485Z,62.6
2024-01-20T21:05:49.214Z,63
2024-01-20T21:11:26.727Z,62.3
2024-01-20T21:17:02.367Z,62.3
2024-01-20T21:22:38.500Z,62.3
2024-01-20T21:28:15.382Z,62.4
2024-01-20T21:33:52.446Z,62.9
2024-01-20T21:39:30.206Z,63.4
2024-01-20T21:45:06.027Z,63.4
2024-01-20T21:50:42.036Z,63.2
2024-01-20T21:56:17.601Z,63.3
2024-01-20T22:01:52.487Z,63.4
2024-01-20T22:07:28.032Z,63.3
2024-01-20T22:13:03.194Z,64.1
2024-01-20T22:18:39.017Z,64.6
2024-01-20T22:24:17.002Z,64
2024-01-20T22:29:52.264Z,63.8
2024-01-20T22:35:27.653Z,64.3
2024-01-20T22:41:03.384Z,64.6
2024-01-20T22:46:40.119Z,64.6
2024-01-20T22:52:15.672Z,64.2
2024-01-20T22:57:51.812Z,64.2
2024-01-20T23:03:27.885Z,63.7
2024-01-20T23:09:04.565Z,63.4
2024-01-20T23:14:40.536Z,64
2024-01-20T23:20:16.472Z,64.4
2024-01-20T23:25:52.076Z,64.9
2024-01-20T23:31:28.144Z,64.5
2024-01-20T23:37:03.673Z,64.4
2024-01-20T23:42:39.335Z,64.7
2024-01-20T23:48:15.995Z,64.3
2024-01-20T23:53:51.652Z,63.8
2024-01-20T23:59:28.370Z,64.3
